Time;durP1;ratioP1;P1;durP2;ratioP2;P2;SDS_P1;SDS_P2;PMS_P1;PMS_P2;Temp;Humidity;BMP_temperature;BMP_pressure;BME280_temperature;BME280_humidity;BME280_pressure;Samples;Min_cycle;Max_cycle;Signal;HPM_P1;HPM_P2
2020/12/01 00:00:24;;;;;;;51.50;32.55;;;6.90;99.90;;;;;;5090111;28;20448;-75
2020/12/01 00:02:50;;;;;;;52.40;32.88;;;7.00;99.90;;;;;;5096960;28;20039;-76
2020/12/01 00:05:17;;;;;;;54.92;33.08;;;7.00;99.90;;;;;;5089029;28;20028;-75
2020/12/01 00:07:43;;;;;;;51.38;30.70;;;7.10;99.90;;;;;;5097927;28;20024;-75
2020/12/01 00:10:12;;;;;;;48.28;30.77;;;7.10;99.90;;;;;;5088370;28;20084;-75
2020/12/01 00:12:42;;;;;;;48.78;31.02;;;7.00;99.90;;;;;;5097563;28;20373;-75
2020/12/01 00:15:11;;;;;;;51.08;32.22;;;7.20;99.90;;;;;;5106349;28;20016;-75
2020/12/01 00:17:37;;;;;;;52.28;32.97;;;7.20;99.90;;;;;;5097362;28;20028;-75
2020/12/01 00:20:05;;;;;;;54.28;30.77;;;7.20;99.90;;;;;;5107200;28;20038;-75
2020/12/01 00:22:31;;;;;;;51.90;31.52;;;7.10;99.90;;;;;;5098938;28;20154;-76
2020/12/01 00:24:57;;;;;;;56.30;31.65;;;7.10;99.90;;;;;;5087727;28;20129;-76
2020/12/01 00:27:23;;;;;;;48.63;30.17;;;7.10;99.90;;;;;;5099489;28;20056;-76
2020/12/01 00:29:49;;;;;;;43.40;28.38;;;7.20;99.90;;;;;;5089938;28;20050;-76
2020/12/01 00:32:14;;;;;;;51.33;29.52;;;7.20;99.90;;;;;;5102900;28;20050;-75
2020/12/01 00:34:40;;;;;;;43.70;28.52;;;7.10;99.90;;;;;;5091675;28;20028;-76
2020/12/01 00:37:06;;;;;;;45.30;28.63;;;7.10;99.90;;;;;;5103141;28;20375;-75
2020/12/01 00:39:31;;;;;;;44.65;27.98;;;7.20;99.90;;;;;;5091721;28;20024;-76
2020/12/01 00:41:57;;;;;;;44.47;27.75;;;7.20;99.90;;;;;;5101857;28;20396;-76
2020/12/01 00:44:23;;;;;;;44.30;27.60;;;7.30;99.90;;;;;;5092145;28;20107;-76
2020/12/01 00:46:48;;;;;;;41.90;27.75;;;7.30;99.90;;;;;;5100831;28;20020;-76
2020/12/01 00:49:16;;;;;;;41.60;27.13;;;7.30;99.90;;;;;;5093474;28;20038;-76
2020/12/01 00:51:42;;;;;;;43.17;27.13;;;7.30;99.90;;;;;;5099615;28;20084;-75
2020/12/01 00:54:07;;;;;;;37.00;26.25;;;7.40;99.90;;;;;;5094365;28;20024;-77
2020/12/01 00:56:33;;;;;;;36.60;24.90;;;7.40;99.90;;;;;;5098461;28;20539;-76
2020/12/01 00:58:59;;;;;;;35.25;24.63;;;7.30;99.90;;;;;;5095403;28;20051;-75
2020/12/01 01:01:27;;;;;;;34.00;23.17;;;7.30;99.90;;;;;;5097192;27;20032;-75
2020/12/01 01:03:53;;;;;;;36.72;23.58;;;7.30;99.90;;;;;;5106556;28;20095;-76
2020/12/01 01:06:19;;;;;;;39.10;25.15;;;7.20;99.90;;;;;;5104904;28;20026;-76
2020/12/01 01:08:45;;;;;;;38.75;24.85;;;7.40;99.90;;;;;;5097323;28;20042;-76
2020/12/01 01:11:11;;;;;;;38.08;23.77;;;7.10;99.90;;;;;;5095019;28;20028;-76
2020/12/01 01:13:38;;;;;;;33.28;23.27;;;7.20;99.90;;;;;;5098088;28;20582;-75
2020/12/01 01:16:05;;;;;;;31.80;23.33;;;7.20;99.90;;;;;;5094137;28;20020;-75
2020/12/01 01:18:31;;;;;;;34.70;23.27;;;7.20;99.90;;;;;;5098882;28;20027;-75
2020/12/01 01:20:57;;;;;;;35.53;21.98;;;7.30;99.90;;;;;;5093207;28;20350;-75
2020/12/01 01:23:23;;;;;;;29.95;21.08;;;7.20;99.90;;;;;;5099673;28;20036;-76
2020/12/01 01:25:48;;;;;;;36.65;22.73;;;7.20;99.90;;;;;;5093279;28;20020;-75
2020/12/01 01:28:14;;;;;;;31.67;22.55;;;7.10;99.90;;;;;;5099730;28;20431;-76
2020/12/01 01:30:41;;;;;;;31.08;21.48;;;7.00;99.90;;;;;;5093032;28;20062;-76
2020/12/01 01:33:08;;;;;;;28.63;20.80;;;6.90;99.90;;;;;;5099570;28;20047;-76
2020/12/01 01:35:34;;;;;;;31.48;21.02;;;6.90;99.90;;;;;;5092869;28;20114;-76
2020/12/01 01:38:04;;;;;;;33.70;20.70;;;6.90;99.90;;;;;;5099222;28;20092;-75
2020/12/01 01:40:31;;;;;;;29.48;21.23;;;6.80;99.90;;;;;;5092740;28;20524;-76
2020/12/01 01:42:58;;;;;;;27.55;19.65;;;6.80;99.90;;;;;;5099280;28;20060;-76
2020/12/01 01:45:53;;;;;;;30.45;20.40;;;6.60;99.90;;;;;;5092208;28;20028;-76
2020/12/01 01:48:21;;;;;;;24.75;17.92;;;6.50;99.90;;;;;;5086572;28;20036;-75
2020/12/01 01:51:22;;;;;;;28.60;19.55;;;6.60;99.90;;;;;;5092784;28;20020;-75
2020/12/01 01:53:52;;;;;;;26.40;18.33;;;6.30;99.90;;;;;;5099653;28;20023;-76
2020/12/01 01:56:22;;;;;;;31.67;19.50;;;6.30;99.90;;;;;;5103867;28;20085;-76
2020/12/01 01:58:48;;;;;;;25.55;18.83;;;6.10;99.90;;;;;;5095799;28;20020;-75
2020/12/01 02:01:17;;;;;;;22.65;16.83;;;6.20;99.90;;;;;;5094484;28;20032;-75
2020/12/01 02:03:49;;;;;;;21.70;16.40;;;6.20;99.90;;;;;;5096379;28;20499;-76
2020/12/01 02:06:36;;;;;;;21.88;15.35;;;6.10;99.90;;;;;;5094415;28;20123;-75
2020/12/01 02:09:07;;;;;;;15.27;13.32;;;6.20;99.90;;;;;;5093967;28;20024;-76
2020/12/01 02:11:34;;;;;;;18.20;13.48;;;5.90;99.90;;;;;;5096714;28;20436;-75
2020/12/01 02:14:15;;;;;;;13.05;11.13;;;5.90;99.90;;;;;;5093848;28;20052;-75
2020/12/01 02:16:48;;;;;;;15.07;12.75;;;6.00;99.90;;;;;;5097773;28;20050;-76
2020/12/01 02:19:17;;;;;;;21.70;14.70;;;6.00;99.90;;;;;;5091539;28;20488;-75
2020/12/01 02:21:43;;;;;;;24.50;16.42;;;6.10;99.90;;;;;;5097906;28;20515;-75
2020/12/01 02:24:16;;;;;;;26.33;19.42;;;6.00;99.90;;;;;;5092532;28;20067;-76
2020/12/01 02:26:47;;;;;;;23.98;16.98;;;6.00;99.90;;;;;;5097832;28;20069;-75
2020/12/01 02:29:16;;;;;;;25.92;18.52;;;5.90;99.90;;;;;;5073437;28;20136;-75
2020/12/01 02:31:41;;;;;;;24.73;18.95;;;6.10;99.90;;;;;;5097519;28;20076;-75
2020/12/01 02:34:15;;;;;;;28.45;20.73;;;6.20;99.90;;;;;;5092550;28;20110;-74
2020/12/01 02:36:41;;;;;;;30.40;21.92;;;6.20;99.90;;;;;;5097286;28;20039;-75
2020/12/01 02:39:09;;;;;;;34.30;23.73;;;6.20;99.90;;;;;;5092708;28;20046;-75
2020/12/01 02:41:35;;;;;;;29.85;22.33;;;6.40;99.90;;;;;;5096244;28;20467;-75
2020/12/01 02:44:03;;;;;;;28.90;19.52;;;6.30;99.90;;;;;;5092967;28;20561;-75
2020/12/01 02:46:34;;;;;;;29.45;20.80;;;6.40;99.90;;;;;;5095243;28;20024;-75
2020/12/01 02:49:01;;;;;;;29.35;21.15;;;6.50;99.90;;;;;;5093259;28;20024;-75
2020/12/01 02:51:26;;;;;;;34.33;22.20;;;6.40;99.90;;;;;;5094385;28;20031;-75
2020/12/01 02:53:52;;;;;;;29.65;21.73;;;6.50;99.90;;;;;;5094356;28;20020;-75
2020/12/01 02:56:18;;;;;;;31.33;22.08;;;6.50;99.90;;;;;;5093583;28;20035;-75
2020/12/01 02:58:43;;;;;;;33.67;23.10;;;6.50;99.90;;;;;;5095301;28;20020;-75
2020/12/01 03:01:09;;;;;;;33.03;23.25;;;6.60;99.90;;;;;;5092283;28;20030;-75
2020/12/01 03:03:34;;;;;;;37.13;26.17;;;6.60;99.90;;;;;;5096498;28;20122;-76
2020/12/01 03:06:05;;;;;;;31.33;22.33;;;6.50;99.90;;;;;;5091230;28;20036;-75
2020/12/01 03:08:30;;;;;;;37.22;24.02;;;6.70;99.90;;;;;;5100863;28;20027;-74
2020/12/01 03:10:56;;;;;;;34.83;24.45;;;6.70;99.90;;;;;;5103247;28;20050;-75
2020/12/01 03:13:22;;;;;;;35.15;23.60;;;6.70;99.90;;;;;;5113301;27;20035;-75
2020/12/01 03:15:47;;;;;;;46.38;27.10;;;6.60;99.90;;;;;;5091056;28;20023;-75
2020/12/01 03:18:13;;;;;;;45.80;28.52;;;6.70;99.90;;;;;;5112990;27;20024;-75
2020/12/01 03:20:39;;;;;;;44.88;27.05;;;6.80;99.90;;;;;;5090973;28;20158;-75
2020/12/01 03:23:05;;;;;;;46.78;28.17;;;6.80;99.90;;;;;;5097219;28;20043;-75
2020/12/01 03:25:30;;;;;;;47.70;28.85;;;6.90;99.90;;;;;;5090835;28;20513;-75
2020/12/01 03:27:56;;;;;;;48.17;28.50;;;6.80;99.90;;;;;;5097566;28;20140;-75
2020/12/01 03:30:21;;;;;;;45.45;27.52;;;7.00;99.90;;;;;;5089408;28;20602;-75
2020/12/01 03:32:47;;;;;;;44.78;27.95;;;7.00;99.90;;;;;;5098448;28;20184;-75
2020/12/01 03:35:13;;;;;;;46.50;28.90;;;7.00;99.90;;;;;;5088450;28;20098;-75
2020/12/01 03:37:38;;;;;;;42.42;26.80;;;7.00;99.90;;;;;;5099404;28;20543;-75
2020/12/01 03:40:04;;;;;;;44.42;27.27;;;7.00;99.90;;;;;;5088474;28;20073;-75
2020/12/01 03:42:30;;;;;;;40.75;26.10;;;7.00;99.90;;;;;;5099137;28;20063;-75
2020/12/01 03:44:55;;;;;;;49.13;27.75;;;7.10;99.90;;;;;;5088256;28;20025;-75
2020/12/01 03:47:21;;;;;;;47.67;27.88;;;7.00;99.90;;;;;;5099378;28;20024;-75
2020/12/01 03:49:47;;;;;;;41.08;26.60;;;7.20;99.90;;;;;;5088197;28;20073;-75
2020/12/01 03:52:12;;;;;;;45.60;29.00;;;7.10;99.90;;;;;;5099728;28;20032;-75
2020/12/01 03:54:38;;;;;;;42.13;27.63;;;7.10;99.90;;;;;;5088353;28;20046;-74
2020/12/01 03:57:04;;;;;;;42.03;26.70;;;7.10;99.90;;;;;;5099323;28;20038;-75
2020/12/01 03:59:29;;;;;;;39.80;26.63;;;7.20;99.90;;;;;;5088520;28;20067;-75
2020/12/01 04:01:55;;;;;;;43.65;27.17;;;7.20;99.90;;;;;;5098029;28;20054;-75
2020/12/01 04:04:21;;;;;;;41.25;25.70;;;7.20;99.90;;;;;;5092633;28;20036;-74
2020/12/01 04:06:47;;;;;;;42.60;25.55;;;7.20;99.90;;;;;;5100949;28;20156;-75
2020/12/01 04:09:12;;;;;;;36.60;25.27;;;7.20;99.90;;;;;;5095144;28;20111;-75
2020/12/01 04:11:38;;;;;;;37.65;26.27;;;7.30;99.90;;;;;;5099703;28;20024;-75
2020/12/01 04:14:04;;;;;;;40.30;25.63;;;7.20;99.90;;;;;;5077476;28;20032;-75
2020/12/01 04:16:29;;;;;;;33.70;24.70;;;7.30;99.90;;;;;;5098418;28;20058;-75
2020/12/01 04:18:55;;;;;;;42.65;26.65;;;7.10;99.90;;;;;;5097232;28;20028;-75
2020/12/01 04:21:21;;;;;;;41.53;26.88;;;7.20;99.90;;;;;;5096894;28;20596;-75
2020/12/01 04:23:51;;;;;;;43.58;28.15;;;7.10;99.90;;;;;;5090528;28;20375;-76
2020/12/01 04:26:21;;;;;;;37.40;25.33;;;7.20;99.90;;;;;;5082369;28;20031;-75
2020/12/01 04:28:48;;;;;;;41.10;26.48;;;7.00;99.90;;;;;;5097978;28;20036;-75
2020/12/01 04:31:14;;;;;;;42.45;28.10;;;7.10;99.90;;;;;;5095966;28;20028;-75
2020/12/01 04:33:40;;;;;;;43.53;27.15;;;7.00;99.90;;;;;;5099100;28;20103;-75
2020/12/01 04:36:06;;;;;;;40.63;25.65;;;7.20;99.90;;;;;;5094452;28;20119;-75
2020/12/01 04:38:32;;;;;;;37.85;25.85;;;7.20;99.90;;;;;;5100248;28;20028;-75
2020/12/01 04:40:58;;;;;;;37.05;25.17;;;7.10;99.90;;;;;;5094210;28;20024;-76
2020/12/01 04:43:31;;;;;;;41.03;26.40;;;7.20;99.90;;;;;;5100242;28;20060;-75
2020/12/01 04:45:58;;;;;;;41.80;25.55;;;7.10;99.90;;;;;;5094219;28;20031;-75
2020/12/01 04:48:44;;;;;;;42.92;25.98;;;7.10;99.90;;;;;;5100478;28;20028;-75
2020/12/01 04:51:22;;;;;;;;;;;7.00;99.90;;;;;;5095394;28;20016;-75
2020/12/01 04:53:56;;;;;;;38.45;24.50;;;7.00;99.90;;;;;;5097813;28;19934;-75
2020/12/01 04:56:37;;;;;;;38.40;24.75;;;6.90;99.90;;;;;;5096449;28;20577;-75
2020/12/01 04:59:47;;;;;;;37.55;26.48;;;7.00;99.90;;;;;;5095432;28;20024;-76
2020/12/01 05:02:31;;;;;;;41.17;25.80;;;6.90;99.90;;;;;;5039385;28;20039;-74
2020/12/01 05:05:10;;;;;;;41.65;27.40;;;7.00;99.90;;;;;;5085955;28;20050;-75
2020/12/01 05:08:09;;;;;;;41.83;27.30;;;6.80;99.90;;;;;;5102517;28;20092;-75
2020/12/01 05:10:36;;;;;;;43.20;26.23;;;6.90;99.90;;;;;;5050109;28;20063;-75
2020/12/01 05:13:20;;;;;;;36.35;25.80;;;6.80;99.90;;;;;;5100259;28;20024;-75
2020/12/01 05:15:53;;;;;;;39.65;26.30;;;6.80;99.90;;;;;;5092763;28;20019;-75
2020/12/01 05:18:30;;;;;;;43.50;26.92;;;6.80;99.90;;;;;;5099857;28;20509;-75
2020/12/01 05:21:02;;;;;;;40.75;28.05;;;6.90;99.90;;;;;;5093512;28;20051;-75
2020/12/01 05:23:34;;;;;;;40.72;25.98;;;7.00;99.90;;;;;;5102240;28;20035;-74
2020/12/01 05:26:02;;;;;;;36.90;25.38;;;7.00;99.90;;;;;;5108453;28;20059;-75
2020/12/01 05:28:28;;;;;;;34.88;23.83;;;7.00;99.90;;;;;;5092129;28;20107;-75
2020/12/01 05:31:05;;;;;;;39.38;26.27;;;7.00;99.90;;;;;;5108959;28;20031;-74
2020/12/01 05:33:33;;;;;;;36.67;25.38;;;7.00;99.90;;;;;;5108390;28;20053;-74
2020/12/01 05:36:21;;;;;;;39.05;25.63;;;6.80;99.90;;;;;;5088473;28;20021;-75
2020/12/01 05:39:17;;;;;;;39.63;26.38;;;7.00;99.90;;;;;;5105276;28;20678;-75
2020/12/01 05:41:46;;;;;;;48.47;29.52;;;6.80;99.90;;;;;;5078044;28;20035;-75
2020/12/01 05:44:22;;;;;;;44.97;28.02;;;6.90;99.90;;;;;;5089114;28;20036;-75
2020/12/01 05:46:55;;;;;;;41.67;27.25;;;6.90;99.90;;;;;;5099177;28;20020;-74
2020/12/01 05:49:43;;;;;;;39.85;26.35;;;6.90;99.90;;;;;;5089320;28;20396;-73
2020/12/01 05:52:27;;;;;;;39.95;27.48;;;7.60;99.90;;;;;;5101843;28;20102;-72
2020/12/01 05:55:14;;;;;;;39.72;26.88;;;7.30;99.90;;;;;;5090720;28;20027;-73
2020/12/01 05:57:40;;;;;;;39.50;26.98;;;7.20;99.90;;;;;;5099315;28;20035;-76
2020/12/01 06:00:20;;;;;;;41.72;27.38;;;7.20;99.90;;;;;;5109849;28;20494;-74
2020/12/01 06:02:58;;;;;;;40.92;28.13;;;7.00;99.90;;;;;;5100711;28;20590;-74
2020/12/01 06:05:25;;;;;;;43.42;26.92;;;7.00;99.90;;;;;;5090985;28;20052;-73
2020/12/01 06:07:55;;;;;;;43.65;29.40;;;7.10;99.90;;;;;;5100063;28;20361;-74
2020/12/01 06:10:23;;;;;;;46.05;30.20;;;6.90;99.90;;;;;;5090863;28;22768;-73
2020/12/01 06:13:04;;;;;;;42.97;28.55;;;7.00;99.90;;;;;;5100111;28;20437;-74
2020/12/01 06:15:32;;;;;;;41.63;28.23;;;7.00;99.90;;;;;;5094301;28;20020;-72
2020/12/01 06:18:16;;;;;;;41.90;28.33;;;7.10;99.90;;;;;;5087321;28;20119;-75
2020/12/01 06:21:02;;;;;;;47.72;30.08;;;7.20;99.90;;;;;;5092337;28;20194;-75
2020/12/01 06:24:02;;;;;;;47.15;31.38;;;7.20;99.90;;;;;;5104531;28;20032;-75
2020/12/01 06:26:55;;;;;;;46.53;31.38;;;7.10;99.90;;;;;;5105006;28;20019;-76
2020/12/01 06:29:35;;;;;;;47.92;31.17;;;7.10;99.90;;;;;;5109111;28;20038;-74
2020/12/01 06:32:40;;;;;;;49.65;31.98;;;7.10;99.90;;;;;;5085030;28;20175;-74
2020/12/01 06:35:43;;;;;;;48.25;30.23;;;7.10;99.90;;;;;;5088898;28;20035;-77
2020/12/01 06:38:51;;;;;;;51.45;32.30;;;7.30;99.90;;;;;;5098324;28;20055;-76
2020/12/01 06:41:23;;;;;;;49.83;33.03;;;7.30;99.90;;;;;;5093586;28;20024;-75
2020/12/01 06:43:55;;;;;;;50.38;32.40;;;7.20;99.90;;;;;;5076775;28;20052;-75
2020/12/01 06:46:32;;;;;;;51.45;33.65;;;7.20;99.90;;;;;;5093589;28;20477;-78
2020/12/01 06:48:59;;;;;;;54.28;33.38;;;7.20;99.90;;;;;;5108906;28;20314;-74
2020/12/01 06:51:25;;;;;;;58.17;33.95;;;7.20;99.90;;;;;;5102832;28;20036;-74
2020/12/01 06:53:50;;;;;;;53.20;33.28;;;7.20;99.90;;;;;;5095513;28;20528;-76
2020/12/01 06:56:18;;;;;;;53.30;33.97;;;7.30;99.90;;;;;;5108384;27;20450;-75
2020/12/01 06:58:49;;;;;;;54.33;34.90;;;7.40;99.90;;;;;;5107178;28;20015;-75
2020/12/01 07:01:28;;;;;;;53.60;34.78;;;7.20;99.90;;;;;;5102608;28;20114;-75
2020/12/01 07:04:05;;;;;;;57.75;34.90;;;7.20;99.90;;;;;;5088884;28;20387;-74
2020/12/01 07:06:31;;;;;;;59.17;34.95;;;7.20;99.90;;;;;;5094907;28;20035;-73
2020/12/01 07:09:12;;;;;;;55.35;34.45;;;7.10;99.90;;;;;;5076012;28;20024;-73
2020/12/01 07:11:50;;;;;;;52.10;33.53;;;7.20;99.90;;;;;;5095870;28;20027;-74
2020/12/01 07:14:22;;;;;;;55.78;34.90;;;7.20;99.90;;;;;;5091034;28;20021;-76
2020/12/01 07:16:49;;;;;;;54.38;34.20;;;7.20;99.90;;;;;;5096999;28;20111;-73
2020/12/01 07:19:22;;;;;;;53.38;34.03;;;7.10;99.90;;;;;;5091186;28;20039;-74
2020/12/01 07:22:14;;;;;;;58.92;34.42;;;7.30;99.90;;;;;;5096810;28;20458;-76
2020/12/01 07:24:57;;;;;;;55.40;32.78;;;7.30;99.90;;;;;;5070376;28;20032;-75
2020/12/01 07:27:40;;;;;;;48.45;31.48;;;7.30;99.90;;;;;;5081986;28;20119;-74
2020/12/01 07:30:23;;;;;;;49.95;32.58;;;7.30;99.90;;;;;;5107444;28;20023;-74
2020/12/01 07:32:59;;;;;;;52.60;33.33;;;7.20;99.90;;;;;;5106852;28;20445;-73
2020/12/01 07:35:57;;;;;;;53.17;33.67;;;7.10;99.90;;;;;;5087868;28;20559;-76
2020/12/01 07:38:29;;;;;;;52.13;31.67;;;7.20;99.90;;;;;;5071352;28;20499;-73
2020/12/01 07:41:22;;;;;;;48.85;31.92;;;7.10;99.90;;;;;;5103989;28;20127;-76
2020/12/01 07:44:04;;;;;;;51.90;33.53;;;7.40;99.90;;;;;;5101355;28;20055;-76
2020/12/01 07:46:31;;;;;;;50.58;31.40;;;7.30;99.90;;;;;;5105793;28;20107;-73
2020/12/01 07:49:02;;;;;;;49.30;30.25;;;7.40;99.90;;;;;;5107783;28;20092;-73
2020/12/01 07:51:30;;;;;;;46.53;32.05;;;7.30;99.90;;;;;;5086545;28;20369;-74
2020/12/01 07:53:58;;;;;;;53.05;31.60;;;7.40;99.90;;;;;;5103090;28;20054;-74
2020/12/01 07:56:27;;;;;;;53.58;32.38;;;7.30;99.90;;;;;;5101910;28;20034;-72
2020/12/01 07:59:12;;;;;;;49.75;31.38;;;7.40;99.90;;;;;;5094033;28;20470;-73
2020/12/01 08:01:39;;;;;;;46.00;30.67;;;7.40;99.90;;;;;;5094942;28;20031;-73
2020/12/01 08:04:13;;;;;;;53.80;32.38;;;7.50;99.90;;;;;;5100157;28;20130;-79
2020/12/01 08:06:40;;;;;;;54.28;34.13;;;7.60;99.90;;;;;;5086091;28;20098;-78
2020/12/01 08:09:24;;;;;;;55.40;34.20;;;7.60;99.90;;;;;;5105137;28;20040;-78
2020/12/01 08:11:54;;;;;;;54.30;33.40;;;7.50;99.90;;;;;;5106608;28;20185;-79
2020/12/01 08:14:20;;;;;;;48.83;31.25;;;7.80;99.90;;;;;;5104874;28;20058;-79
2020/12/01 08:17:06;;;;;;;46.78;31.00;;;7.70;99.90;;;;;;5106535;28;20063;-79
2020/12/01 08:19:32;;;;;;;54.03;31.40;;;7.60;99.90;;;;;;5107889;28;20135;-78
2020/12/01 08:22:00;;;;;;;49.53;29.70;;;7.80;99.90;;;;;;5080659;28;20096;-78
2020/12/01 08:24:28;;;;;;;50.88;31.58;;;7.80;99.90;;;;;;5106330;28;20032;-78
2020/12/01 08:27:23;;;;;;;48.92;31.58;;;7.60;99.90;;;;;;5098318;28;20024;-78
2020/12/01 08:29:52;;;;;;;49.10;30.27;;;7.80;99.90;;;;;;5087506;28;20020;-79
2020/12/01 08:32:47;;;;;;;49.03;30.02;;;7.70;99.90;;;;;;5098359;28;20034;-74
2020/12/01 08:35:41;;;;;;;48.05;30.75;;;7.80;99.90;;;;;;5085276;28;20518;-73
2020/12/01 08:38:47;;;;;;;45.80;28.42;;;7.90;99.90;;;;;;5096450;28;20255;-72
2020/12/01 08:41:39;;;;;;;59.13;28.92;;;7.80;99.90;;;;;;5100411;28;20496;-73
2020/12/01 08:44:10;;;;;;;47.65;28.83;;;7.90;99.90;;;;;;5091359;28;20078;-73
2020/12/01 08:46:43;;;;;;;46.47;28.45;;;7.90;99.90;;;;;;5093523;28;20023;-73
2020/12/01 08:49:23;;;;;;;49.33;29.48;;;8.00;99.90;;;;;;5092226;28;20366;-72
2020/12/01 08:51:54;;;;;;;45.88;28.77;;;8.00;99.90;;;;;;5108619;28;20035;-85
2020/12/01 08:54:27;;;;;;;45.72;26.95;;;8.00;99.90;;;;;;5090414;28;20055;-83
2020/12/01 08:57:20;;;;;;;44.50;27.10;;;8.00;99.90;;;;;;5096371;28;20040;-82
2020/12/01 09:00:04;;;;;;;43.65;26.90;;;8.00;99.90;;;;;;5090799;28;20095;-74
2020/12/01 09:02:38;;;;;;;42.40;26.73;;;8.10;99.90;;;;;;5102255;28;20092;-74
2020/12/01 09:05:04;;;;;;;50.92;28.17;;;8.20;99.90;;;;;;5091265;28;20032;-75
2020/12/01 09:07:36;;;;;;;42.33;27.15;;;8.20;99.90;;;;;;5105492;28;20058;-74
2020/12/01 09:10:22;;;;;;;45.45;28.67;;;8.30;99.90;;;;;;5110855;28;20020;-74
2020/12/01 09:13:12;;;;;;;40.25;28.02;;;8.40;99.90;;;;;;5105537;28;20027;-74
2020/12/01 09:15:45;;;;;;;42.22;25.92;;;8.30;99.90;;;;;;5089354;28;20126;-76
2020/12/01 09:24:03;;;;;;;39.22;26.13;;;8.50;99.90;;;;;;5105444;28;20103;-73
2020/12/01 09:26:30;;;;;;;39.53;25.98;;;8.40;99.90;;;;;;5107993;28;20024;-72
2020/12/01 09:28:56;;;;;;;39.70;26.50;;;8.50;99.90;;;;;;5104607;28;20061;-72
2020/12/01 09:31:24;;;;;;;50.22;27.75;;;8.50;99.90;;;;;;5107740;28;20096;-73
2020/12/01 09:33:56;;;;;;;43.30;28.60;;;8.50;99.90;;;;;;5107693;28;20102;-73
2020/12/01 09:36:23;;;;;;;41.95;27.40;;;8.60;99.90;;;;;;5105775;28;20058;-72
2020/12/01 09:38:50;;;;;;;43.00;28.88;;;8.50;99.90;;;;;;5107656;28;20022;-72
2020/12/01 09:41:19;;;;;;;40.97;27.17;;;8.70;99.90;;;;;;5105107;28;20035;-72
2020/12/01 09:44:11;;;;;;;43.67;26.52;;;8.70;99.90;;;;;;5109070;28;20105;-72
2020/12/01 09:46:42;;;;;;;39.28;27.60;;;8.60;99.90;;;;;;5102639;28;20581;-74
2020/12/01 09:49:07;;;;;;;43.22;27.58;;;8.70;99.90;;;;;;5108692;28;20170;-73
2020/12/01 09:51:33;;;;;;;43.10;28.65;;;8.90;99.90;;;;;;5106546;27;20179;-73
2020/12/01 09:56:53;;;;;;;37.13;24.67;;;9.00;99.90;;;;;;5106640;28;20039;-72
2020/12/01 10:10:24;;;;;;;41.75;26.20;;;9.10;99.90;;;;;;5108440;28;20571;-73
2020/12/01 10:18:27;;;;;;;37.13;23.35;;;9.00;99.90;;;;;;5098608;28;20393;-73
2020/12/01 10:24:41;;;;;;;33.95;23.20;;;8.80;99.90;;;;;;5098102;28;20043;-72
2020/12/01 10:36:44;;;;;;;34.70;24.20;;;8.80;99.90;;;;;;5096298;28;20238;-75
2020/12/01 10:39:10;;;;;;;33.58;22.23;;;8.90;99.90;;;;;;5095565;28;20147;-76
2020/12/01 10:41:39;;;;;;;35.67;23.48;;;8.90;99.90;;;;;;5082833;28;20034;-75
2020/12/01 10:44:06;;;;;;;34.08;23.65;;;8.70;99.90;;;;;;5093067;28;20067;-74
2020/12/01 10:46:32;;;;;;;35.80;23.67;;;8.90;99.90;;;;;;5094066;28;20023;-74
2020/12/01 10:48:58;;;;;;;36.05;23.80;;;8.80;99.90;;;;;;5094668;28;20042;-75
2020/12/01 10:51:24;;;;;;;31.30;23.27;;;8.90;99.90;;;;;;5092927;28;20047;-72
2020/12/01 10:53:50;;;;;;;35.75;22.85;;;8.70;99.90;;;;;;5095609;28;20028;-73
2020/12/01 10:56:16;;;;;;;35.50;23.60;;;8.70;99.90;;;;;;5091728;28;20054;-73
2020/12/01 10:58:41;;;;;;;34.85;23.58;;;8.80;99.90;;;;;;5096487;28;20496;-73
2020/12/01 11:01:07;;;;;;;30.88;22.80;;;8.70;99.90;;;;;;5091067;28;20021;-74
2020/12/01 11:03:32;;;;;;;35.35;23.33;;;8.80;99.90;;;;;;5096773;28;20185;-74
2020/12/01 11:05:58;;;;;;;35.30;24.13;;;8.70;99.90;;;;;;5095542;28;20069;-71
2020/12/01 11:08:24;;;;;;;35.53;23.85;;;8.70;99.90;;;;;;5107712;28;20028;-71
2020/12/01 11:10:49;;;;;;;31.58;23.02;;;8.90;99.90;;;;;;5104540;28;20058;-73
2020/12/01 11:13:15;;;;;;;33.30;23.33;;;8.80;99.90;;;;;;5107219;28;20020;-71
2020/12/01 11:15:41;;;;;;;36.75;25.17;;;8.80;99.90;;;;;;5105436;28;20035;-71
2020/12/01 11:18:06;;;;;;;34.00;24.15;;;8.70;99.90;;;;;;5105754;28;20042;-74
2020/12/01 11:20:33;;;;;;;34.08;24.80;;;8.80;99.90;;;;;;5105984;28;20391;-73
2020/12/01 11:22:59;;;;;;;35.53;25.35;;;9.00;99.90;;;;;;5107641;28;20035;-71
2020/12/01 11:25:25;;;;;;;36.03;23.80;;;8.90;99.90;;;;;;5106538;28;20099;-72
2020/12/01 11:27:51;;;;;;;39.20;24.30;;;8.90;99.90;;;;;;5099114;28;20035;-71
2020/12/01 11:30:20;;;;;;;31.45;23.48;;;9.00;99.90;;;;;;5088484;28;20039;-71
2020/12/01 11:32:46;;;;;;;34.60;24.90;;;8.90;99.90;;;;;;5099384;28;20024;-71
2020/12/01 11:35:13;;;;;;;36.25;25.40;;;9.10;99.90;;;;;;5088027;28;20485;-72
2020/12/01 11:37:39;;;;;;;35.30;25.25;;;9.00;99.90;;;;;;5099335;28;20060;-70
2020/12/01 11:40:06;;;;;;;32.35;23.15;;;9.10;99.90;;;;;;5088127;28;20157;-72
2020/12/01 11:42:32;;;;;;;31.08;23.33;;;9.10;99.90;;;;;;5099001;28;20105;-71
2020/12/01 11:44:57;;;;;;;33.28;23.23;;;9.10;99.90;;;;;;5088054;28;20447;-72
2020/12/01 11:47:23;;;;;;;30.70;22.77;;;9.10;99.90;;;;;;5099320;28;20028;-71
2020/12/01 11:49:49;;;;;;;30.70;22.23;;;9.10;99.90;;;;;;5087706;28;20028;-71
2020/12/01 11:52:14;;;;;;;27.33;21.52;;;9.20;99.90;;;;;;5098749;28;20067;-74
2020/12/01 11:54:40;;;;;;;25.83;20.70;;;9.20;99.90;;;;;;5088069;28;20039;-71
2020/12/01 11:57:06;;;;;;;24.23;18.45;;;9.30;99.90;;;;;;5097902;28;20027;-72
2020/12/01 11:59:31;;;;;;;24.10;17.90;;;9.20;99.90;;;;;;5088875;28;20032;-71
2020/12/01 12:01:57;;;;;;;22.33;18.20;;;9.30;99.90;;;;;;5096686;28;20099;-72
2020/12/01 12:04:22;;;;;;;26.75;18.55;;;9.30;99.90;;;;;;5084963;28;20039;-71
2020/12/01 12:06:48;;;;;;;22.60;17.50;;;9.40;99.90;;;;;;5101585;28;20080;-71
2020/12/01 12:09:14;;;;;;;24.42;18.15;;;9.50;99.90;;;;;;5091509;28;20336;-73
2020/12/01 12:11:40;;;;;;;26.92;17.60;;;9.30;99.90;;;;;;5093857;28;20031;-72
2020/12/01 12:14:06;;;;;;;22.92;17.05;;;9.50;99.90;;;;;;5092562;28;20400;-73
2020/12/01 12:16:32;;;;;;;22.77;16.13;;;9.50;99.90;;;;;;5092743;28;20150;-72
2020/12/01 12:18:58;;;;;;;19.77;15.48;;;9.60;99.90;;;;;;5093354;28;20051;-77
2020/12/01 12:21:25;;;;;;;17.73;14.65;;;9.60;99.90;;;;;;5095336;28;20506;-76
2020/12/01 12:23:50;;;;;;;18.08;13.38;;;9.60;99.90;;;;;;5106941;28;20047;-71
2020/12/01 12:26:17;;;;;;;16.75;13.07;;;9.60;99.90;;;;;;5105999;28;20189;-72
2020/12/01 12:28:43;;;;;;;19.80;13.00;;;9.70;99.90;;;;;;5103401;28;20525;-73
2020/12/01 12:31:11;;;;;;;17.92;13.10;;;9.60;99.90;;;;;;5107289;28;20092;-78
2020/12/01 12:33:37;;;;;;;13.25;11.98;;;9.70;99.90;;;;;;5102770;28;20024;-72
2020/12/01 12:36:03;;;;;;;12.77;11.32;;;9.70;99.90;;;;;;5106348;28;20452;-75
2020/12/01 12:38:29;;;;;;;17.13;11.38;;;9.70;99.90;;;;;;5100151;28;20054;-76
2020/12/01 12:40:56;;;;;;;13.43;11.55;;;9.80;99.90;;;;;;5094266;28;20095;-73
2020/12/01 12:43:26;;;;;;;13.55;12.13;;;9.90;99.90;;;;;;5106186;28;20039;-73
2020/12/01 12:45:52;;;;;;;11.77;10.00;;;9.90;99.90;;;;;;5109191;28;20016;-71
2020/12/01 12:48:20;;;;;;;12.23;10.85;;;9.90;99.90;;;;;;5106261;28;20065;-72
2020/12/01 12:50:45;;;;;;;13.13;11.60;;;9.90;99.90;;;;;;5109488;28;20274;-73
2020/12/01 12:53:11;;;;;;;13.57;10.55;;;9.90;99.90;;;;;;5106571;28;20242;-72
2020/12/01 12:55:37;;;;;;;12.00;10.60;;;9.90;99.90;;;;;;5108651;28;20525;-74
2020/12/01 12:58:03;;;;;;;16.00;10.82;;;9.90;99.90;;;;;;5108444;28;20110;-72
2020/12/01 13:00:32;;;;;;;17.25;11.05;;;10.00;99.90;;;;;;5105997;28;20102;-71
2020/12/01 13:02:58;;;;;;;10.40;9.30;;;10.20;99.90;;;;;;5099122;28;20040;-72
2020/12/01 13:05:25;;;;;;;11.32;9.73;;;10.30;99.90;;;;;;5089720;28;20024;-72
2020/12/01 13:07:51;;;;;;;12.10;10.00;;;10.30;99.90;;;;;;5099505;28;20034;-72
2020/12/01 13:10:17;;;;;;;16.40;11.70;;;10.40;99.90;;;;;;5110297;28;20019;-72
2020/12/01 13:12:43;;;;;;;15.57;10.88;;;10.50;99.90;;;;;;5101721;28;20021;-72
2020/12/01 13:15:09;;;;;;;11.35;10.23;;;10.40;99.90;;;;;;5090468;28;20024;-72
2020/12/01 13:17:35;;;;;;;13.00;8.93;;;10.50;99.90;;;;;;5098463;28;20114;-71
2020/12/01 13:20:02;;;;;;;9.70;8.70;;;10.60;99.90;;;;;;5109856;28;20103;-71
2020/12/01 13:22:28;;;;;;;12.63;8.48;;;10.50;99.90;;;;;;5102026;28;20031;-71
2020/12/01 13:24:53;;;;;;;11.25;8.10;;;10.50;99.90;;;;;;5090798;28;20071;-70
2020/12/01 13:27:19;;;;;;;9.63;8.15;;;10.50;99.90;;;;;;5101349;28;20507;-74
2020/12/01 13:29:45;;;;;;;9.07;7.95;;;10.50;99.90;;;;;;5089494;28;20107;-71
2020/12/01 13:32:10;;;;;;;8.82;8.02;;;10.60;99.90;;;;;;5100790;28;20135;-72
2020/12/01 13:34:36;;;;;;;10.23;8.05;;;10.50;99.90;;;;;;5089834;28;20043;-72